sensor_id;sensor_type;location;lat;lon;timestamp;P1;durP1;ratioP1;P2;durP2;ratioP2
68985;SDS011;56035;37.534;-122.308;2023-11-19T00:00:57;18.60;;;2.47;;
68985;SDS011;56035;37.534;-122.308;2023-11-19T00:03:23;24.13;;;3.10;;
68985;SDS011;56035;37.534;-122.308;2023-11-19T00:05:50;13.13;;;2.63;;
68985;SDS011;56035;37.534;-122.308;2023-11-19T00:08:16;19.33;;;2.70;;
68985;SDS011;56035;37.534;-122.308;2023-11-19T00:10:42;16.70;;;2.63;;
68985;SDS011;56035;37.534;-122.308;2023-11-19T00:13:09;13.35;;;2.58;;
68985;SDS011;56035;37.534;-122.308;2023-11-19T00:15:35;19.73;;;3.13;;
68985;SDS011;56035;37.534;-122.308;2023-11-19T00:18:02;21.33;;;2.80;;
68985;SDS011;56035;37.534;-122.308;2023-11-19T00:20:30;14.93;;;3.10;;
68985;SDS011;56035;37.534;-122.308;2023-11-19T00:22:56;18.38;;;3.60;;
68985;SDS011;56035;37.534;-122.308;2023-11-19T00:25:22;13.65;;;2.50;;
68985;SDS011;56035;37.534;-122.308;2023-11-19T00:27:49;17.25;;;3.22;;
68985;SDS011;56035;37.534;-122.308;2023-11-19T00:30:16;21.55;;;2.88;;
68985;SDS011;56035;37.534;-122.308;2023-11-19T00:32:43;17.63;;;2.72;;
68985;SDS011;56035;37.534;-122.308;2023-11-19T00:35:10;13.90;;;3.27;;
68985;SDS011;56035;37.534;-122.308;2023-11-19T00:37:39;13.55;;;3.45;;
68985;SDS011;56035;37.534;-122.308;2023-11-19T00:40:07;14.77;;;3.13;;
68985;SDS011;56035;37.534;-122.308;2023-11-19T00:42:35;16.23;;;3.15;;
68985;SDS011;56035;37.534;-122.308;2023-11-19T00:45:02;20.15;;;3.22;;
68985;SDS011;56035;37.534;-122.308;2023-11-19T00:47:28;21.00;;;3.50;;
68985;SDS011;56035;37.534;-122.308;2023-11-19T00:49:56;18.50;;;3.03;;
68985;SDS011;56035;37.534;-122.308;2023-11-19T00:52:22;20.40;;;3.17;;
68985;SDS011;56035;37.534;-122.308;2023-11-19T00:54:49;16.05;;;2.90;;
68985;SDS011;56035;37.534;-122.308;2023-11-19T00:57:15;21.65;;;3.97;;
68985;SDS011;56035;37.534;-122.308;2023-11-19T00:59:42;20.05;;;3.20;;
68985;SDS011;56035;37.534;-122.308;2023-11-19T01:02:09;22.38;;;4.22;;
68985;SDS011;56035;37.534;-122.308;2023-11-19T01:04:35;21.40;;;3.45;;
68985;SDS011;56035;37.534;-122.308;2023-11-19T01:07:03;16.35;;;3.15;;
68985;SDS011;56035;37.534;-122.308;2023-11-19T01:09:33;20.13;;;4.37;;
68985;SDS011;56035;37.534;-122.308;2023-11-19T01:12:00;22.73;;;4.10;;
68985;SDS011;56035;37.534;-122.308;2023-11-19T01:14:27;27.97;;;4.87;;
68985;SDS011;56035;37.534;-122.308;2023-11-19T01:19:23;18.63;;;3.53;;
68985;SDS011;56035;37.534;-122.308;2023-11-19T01:21:50;25.87;;;4.30;;
68985;SDS011;56035;37.534;-122.308;2023-11-19T01:24:17;21.57;;;4.00;;
68985;SDS011;56035;37.534;-122.308;2023-11-19T01:26:43;20.50;;;4.18;;
68985;SDS011;56035;37.534;-122.308;2023-11-19T01:31:39;14.57;;;3.20;;
68985;SDS011;56035;37.534;-122.308;2023-11-19T01:34:06;18.15;;;3.65;;
68985;SDS011;56035;37.534;-122.308;2023-11-19T01:36:33;18.77;;;3.50;;
68985;SDS011;56035;37.534;-122.308;2023-11-19T01:38:59;22.92;;;3.83;;
68985;SDS011;56035;37.534;-122.308;2023-11-19T01:43:52;28.73;;;5.13;;
68985;SDS011;56035;37.534;-122.308;2023-11-19T01:46:19;20.98;;;4.45;;
68985;SDS011;56035;37.534;-122.308;2023-11-19T01:48:46;23.00;;;4.55;;
68985;SDS011;56035;37.534;-122.308;2023-11-19T01:51:12;19.10;;;5.18;;
68985;SDS011;56035;37.534;-122.308;2023-11-19T01:53:41;21.00;;;5.30;;
68985;SDS011;56035;37.534;-122.308;2023-11-19T01:56:09;22.02;;;5.55;;
68985;SDS011;56035;37.534;-122.308;2023-11-19T01:58:37;33.57;;;6.30;;
68985;SDS011;56035;37.534;-122.308;2023-11-19T02:01:05;20.40;;;5.20;;
68985;SDS011;56035;37.534;-122.308;2023-11-19T02:03:32;24.00;;;5.97;;
68985;SDS011;56035;37.534;-122.308;2023-11-19T02:05:59;27.03;;;6.00;;
68985;SDS011;56035;37.534;-122.308;2023-11-19T02:10:52;25.53;;;5.27;;
68985;SDS011;56035;37.534;-122.308;2023-11-19T02:13:22;24.30;;;5.40;;
68985;SDS011;56035;37.534;-122.308;2023-11-19T02:15:52;19.73;;;6.17;;
68985;SDS011;56035;37.534;-122.308;2023-11-19T02:18:19;18.83;;;4.72;;
68985;SDS011;56035;37.534;-122.308;2023-11-19T02:20:50;27.30;;;4.93;;
68985;SDS011;56035;37.534;-122.308;2023-11-19T02:23:17;21.25;;;4.72;;
68985;SDS011;56035;37.534;-122.308;2023-11-19T02:25:47;23.30;;;4.88;;
68985;SDS011;56035;37.534;-122.308;2023-11-19T02:28:34;15.17;;;4.07;;
68985;SDS011;56035;37.534;-122.308;2023-11-19T02:31:02;13.13;;;3.70;;
68985;SDS011;56035;37.534;-122.308;2023-11-19T02:33:30;21.43;;;3.90;;
68985;SDS011;56035;37.534;-122.308;2023-11-19T02:35:56;19.80;;;3.83;;
68985;SDS011;56035;37.534;-122.308;2023-11-19T02:38:23;19.73;;;3.35;;
68985;SDS011;56035;37.534;-122.308;2023-11-19T02:40:49;21.35;;;4.45;;
68985;SDS011;56035;37.534;-122.308;2023-11-19T02:43:16;14.18;;;3.35;;
68985;SDS011;56035;37.534;-122.308;2023-11-19T02:45:43;23.60;;;4.03;;
68985;SDS011;56035;37.534;-122.308;2023-11-19T02:48:11;20.20;;;3.53;;
68985;SDS011;56035;37.534;-122.308;2023-11-19T02:50:37;19.88;;;3.58;;
68985;SDS011;56035;37.534;-122.308;2023-11-19T02:53:03;17.73;;;3.72;;
68985;SDS011;56035;37.534;-122.308;2023-11-19T02:55:31;23.03;;;4.30;;
68985;SDS011;56035;37.534;-122.308;2023-11-19T02:58:03;22.60;;;3.90;;
68985;SDS011;56035;37.534;-122.308;2023-11-19T03:00:39;19.65;;;4.00;;
68985;SDS011;56035;37.534;-122.308;2023-11-19T03:03:13;24.60;;;4.45;;
68985;SDS011;56035;37.534;-122.308;2023-11-19T03:05:47;20.93;;;3.33;;
68985;SDS011;56035;37.534;-122.308;2023-11-19T03:08:17;21.67;;;4.05;;
68985;SDS011;56035;37.534;-122.308;2023-11-19T03:10:43;22.17;;;3.20;;
68985;SDS011;56035;37.534;-122.308;2023-11-19T03:13:11;19.85;;;4.10;;
68985;SDS011;56035;37.534;-122.308;2023-11-19T03:15:42;16.73;;;3.63;;
68985;SDS011;56035;37.534;-122.308;2023-11-19T03:18:08;23.10;;;3.10;;
68985;SDS011;56035;37.534;-122.308;2023-11-19T03:20:35;18.15;;;2.97;;
68985;SDS011;56035;37.534;-122.308;2023-11-19T03:23:01;21.80;;;3.88;;
68985;SDS011;56035;37.534;-122.308;2023-11-19T03:25:27;17.50;;;3.35;;
68985;SDS011;56035;37.534;-122.308;2023-11-19T03:28:02;20.67;;;3.43;;
68985;SDS011;56035;37.534;-122.308;2023-11-19T03:30:29;19.17;;;3.77;;
68985;SDS011;56035;37.534;-122.308;2023-11-19T03:32:56;25.93;;;3.17;;
68985;SDS011;56035;37.534;-122.308;2023-11-19T03:35:24;24.87;;;3.70;;
68985;SDS011;56035;37.534;-122.308;2023-11-19T03:37:50;21.92;;;3.60;;
68985;SDS011;56035;37.534;-122.308;2023-11-19T03:40:37;21.40;;;3.63;;
68985;SDS011;56035;37.534;-122.308;2023-11-19T03:43:04;18.03;;;3.70;;
68985;SDS011;56035;37.534;-122.308;2023-11-19T03:45:30;21.23;;;3.92;;
68985;SDS011;56035;37.534;-122.308;2023-11-19T03:47:57;24.48;;;3.53;;
68985;SDS011;56035;37.534;-122.308;2023-11-19T03:50:23;21.42;;;3.55;;
68985;SDS011;56035;37.534;-122.308;2023-11-19T03:52:50;20.52;;;3.55;;
68985;SDS011;56035;37.534;-122.308;2023-11-19T03:55:16;20.77;;;3.40;;
68985;SDS011;56035;37.534;-122.308;2023-11-19T03:57:42;19.92;;;3.30;;
68985;SDS011;56035;37.534;-122.308;2023-11-19T04:00:09;16.02;;;4.03;;
68985;SDS011;56035;37.534;-122.308;2023-11-19T04:02:36;19.60;;;3.45;;
68985;SDS011;56035;37.534;-122.308;2023-11-19T04:05:02;17.87;;;4.00;;
68985;SDS011;56035;37.534;-122.308;2023-11-19T04:07:30;27.90;;;4.00;;
68985;SDS011;56035;37.534;-122.308;2023-11-19T04:09:57;22.77;;;3.83;;
68985;SDS011;56035;37.534;-122.308;2023-11-19T04:14:50;21.30;;;3.63;;
68985;SDS011;56035;37.534;-122.308;2023-11-19T04:17:21;22.13;;;3.20;;
68985;SDS011;56035;37.534;-122.308;2023-11-19T04:19:57;24.67;;;4.63;;
68985;SDS011;56035;37.534;-122.308;2023-11-19T04:24:50;25.57;;;4.00;;
68985;SDS011;56035;37.534;-122.308;2023-11-19T04:27:19;26.23;;;3.80;;
68985;SDS011;56035;37.534;-122.308;2023-11-19T04:29:49;20.97;;;3.80;;
68985;SDS011;56035;37.534;-122.308;2023-11-19T04:34:42;17.50;;;3.43;;
68985;SDS011;56035;37.534;-122.308;2023-11-19T04:37:08;16.17;;;3.30;;
68985;SDS011;56035;37.534;-122.308;2023-11-19T04:39:35;19.42;;;3.47;;
68985;SDS011;56035;37.534;-122.308;2023-11-19T04:42:02;17.77;;;4.20;;
68985;SDS011;56035;37.534;-122.308;2023-11-19T04:44:29;17.00;;;3.30;;
68985;SDS011;56035;37.534;-122.308;2023-11-19T04:46:56;19.27;;;3.67;;
68985;SDS011;56035;37.534;-122.308;2023-11-19T04:49:22;22.25;;;4.03;;
68985;SDS011;56035;37.534;-122.308;2023-11-19T04:51:49;24.58;;;4.88;;
68985;SDS011;56035;37.534;-122.308;2023-11-19T04:56:45;22.00;;;3.43;;
68985;SDS011;56035;37.534;-122.308;2023-11-19T04:59:12;20.20;;;2.90;;
68985;SDS011;56035;37.534;-122.308;2023-11-19T05:01:39;22.02;;;2.72;;
68985;SDS011;56035;37.534;-122.308;2023-11-19T05:04:05;27.73;;;3.08;;
68985;SDS011;56035;37.534;-122.308;2023-11-19T05:06:32;21.23;;;2.70;;
68985;SDS011;56035;37.534;-122.308;2023-11-19T05:09:01;19.83;;;2.90;;
68985;SDS011;56035;37.534;-122.308;2023-11-19T05:11:33;26.80;;;3.17;;
68985;SDS011;56035;37.534;-122.308;2023-11-19T05:13:59;25.43;;;2.87;;
68985;SDS011;56035;37.534;-122.308;2023-11-19T05:16:29;34.87;;;4.60;;
68985;SDS011;56035;37.534;-122.308;2023-11-19T05:18:56;34.67;;;3.92;;
68985;SDS011;56035;37.534;-122.308;2023-11-19T05:21:22;32.08;;;3.50;;
68985;SDS011;56035;37.534;-122.308;2023-11-19T05:23:51;37.40;;;5.10;;
68985;SDS011;56035;37.534;-122.308;2023-11-19T05:26:18;37.60;;;4.45;;
68985;SDS011;56035;37.534;-122.308;2023-11-19T05:28:45;44.07;;;5.00;;
68985;SDS011;56035;37.534;-122.308;2023-11-19T05:31:12;45.47;;;5.32;;
68985;SDS011;56035;37.534;-122.308;2023-11-19T05:33:38;45.58;;;4.90;;
68985;SDS011;56035;37.534;-122.308;2023-11-19T05:36:05;41.35;;;5.03;;
68985;SDS011;56035;37.534;-122.308;2023-11-19T05:38:33;51.33;;;5.23;;
68985;SDS011;56035;37.534;-122.308;2023-11-19T05:41:01;48.97;;;6.00;;
68985;SDS011;56035;37.534;-122.308;2023-11-19T05:43:28;51.15;;;5.20;;
68985;SDS011;56035;37.534;-122.308;2023-11-19T05:45:54;50.15;;;6.15;;
68985;SDS011;56035;37.534;-122.308;2023-11-19T05:48:20;48.30;;;6.28;;
68985;SDS011;56035;37.534;-122.308;2023-11-19T05:50:47;48.33;;;4.72;;
68985;SDS011;56035;37.534;-122.308;2023-11-19T05:53:15;39.73;;;4.50;;
68985;SDS011;56035;37.534;-122.308;2023-11-19T05:58:23;48.43;;;5.53;;
68985;SDS011;56035;37.534;-122.308;2023-11-19T06:00:57;47.30;;;5.57;;
68985;SDS011;56035;37.534;-122.308;2023-11-19T06:03:26;46.73;;;5.30;;
68985;SDS011;56035;37.534;-122.308;2023-11-19T06:08:22;47.63;;;6.13;;
68985;SDS011;56035;37.534;-122.308;2023-11-19T06:10:48;44.30;;;5.78;;
68985;SDS011;56035;37.534;-122.308;2023-11-19T06:13:16;49.60;;;6.30;;
68985;SDS011;56035;37.534;-122.308;2023-11-19T06:15:43;57.72;;;7.60;;
68985;SDS011;56035;37.534;-122.308;2023-11-19T06:18:09;52.55;;;6.13;;
68985;SDS011;56035;37.534;-122.308;2023-11-19T06:20:37;51.40;;;6.03;;
68985;SDS011;56035;37.534;-122.308;2023-11-19T06:23:04;59.85;;;6.90;;
68985;SDS011;56035;37.534;-122.308;2023-11-19T06:25:30;50.42;;;5.50;;
68985;SDS011;56035;37.534;-122.308;2023-11-19T06:27:57;47.42;;;5.78;;
68985;SDS011;56035;37.534;-122.308;2023-11-19T06:30:23;51.00;;;5.05;;
68985;SDS011;56035;37.534;-122.308;2023-11-19T06:32:50;47.90;;;6.25;;
68985;SDS011;56035;37.534;-122.308;2023-11-19T06:35:17;41.23;;;4.93;;
68985;SDS011;56035;37.534;-122.308;2023-11-19T06:37:43;46.30;;;5.60;;
68985;SDS011;56035;37.534;-122.308;2023-11-19T06:40:10;43.50;;;4.93;;
68985;SDS011;56035;37.534;-122.308;2023-11-19T06:42:37;41.17;;;4.33;;
68985;SDS011;56035;37.534;-122.308;2023-11-19T06:45:04;36.60;;;5.00;;
68985;SDS011;56035;37.534;-122.308;2023-11-19T06:47:31;39.83;;;5.53;;
68985;SDS011;56035;37.534;-122.308;2023-11-19T06:49:58;42.53;;;4.90;;
68985;SDS011;56035;37.534;-122.308;2023-11-19T06:52:24;45.10;;;5.35;;
68985;SDS011;56035;37.534;-122.308;2023-11-19T06:54:51;38.92;;;5.22;;
68985;SDS011;56035;37.534;-122.308;2023-11-19T06:57:17;34.40;;;4.32;;
68985;SDS011;56035;37.534;-122.308;2023-11-19T06:59:45;40.47;;;5.80;;
68985;SDS011;56035;37.534;-122.308;2023-11-19T07:02:12;33.13;;;4.72;;
68985;SDS011;56035;37.534;-122.308;2023-11-19T07:04:39;39.57;;;4.13;;
68985;SDS011;56035;37.534;-122.308;2023-11-19T07:07:05;48.15;;;5.15;;
68985;SDS011;56035;37.534;-122.308;2023-11-19T07:09:32;45.92;;;5.15;;
68985;SDS011;56035;37.534;-122.308;2023-11-19T07:11:59;43.65;;;5.05;;
68985;SDS011;56035;37.534;-122.308;2023-11-19T07:14:26;42.00;;;5.07;;
68985;SDS011;56035;37.534;-122.308;2023-11-19T07:16:54;46.30;;;5.67;;
68985;SDS011;56035;37.534;-122.308;2023-11-19T07:19:21;44.77;;;5.30;;
68985;SDS011;56035;37.534;-122.308;2023-11-19T07:21:47;39.08;;;5.10;;
68985;SDS011;56035;37.534;-122.308;2023-11-19T07:26:41;42.27;;;5.67;;
68985;SDS011;56035;37.534;-122.308;2023-11-19T07:29:09;46.10;;;5.23;;
68985;SDS011;56035;37.534;-122.308;2023-11-19T07:31:35;44.92;;;6.25;;
68985;SDS011;56035;37.534;-122.308;2023-11-19T07:34:02;45.25;;;4.82;;
68985;SDS011;56035;37.534;-122.308;2023-11-19T07:36:30;46.57;;;5.93;;
68985;SDS011;56035;37.534;-122.308;2023-11-19T07:38:57;41.60;;;6.35;;
68985;SDS011;56035;37.534;-122.308;2023-11-19T07:41:24;49.67;;;5.60;;
68985;SDS011;56035;37.534;-122.308;2023-11-19T07:43:51;50.00;;;5.77;;
68985;SDS011;56035;37.534;-122.308;2023-11-19T07:46:18;43.73;;;5.00;;
68985;SDS011;56035;37.534;-122.308;2023-11-19T07:48:45;37.05;;;5.32;;
68985;SDS011;56035;37.534;-122.308;2023-11-19T07:51:14;54.90;;;5.13;;
68985;SDS011;56035;37.534;-122.308;2023-11-19T07:53:41;51.60;;;5.53;;
68985;SDS011;56035;37.534;-122.308;2023-11-19T07:56:08;42.60;;;4.75;;
68985;SDS011;56035;37.534;-122.308;2023-11-19T07:58:35;42.83;;;5.83;;
68985;SDS011;56035;37.534;-122.308;2023-11-19T08:01:02;44.17;;;4.70;;
68985;SDS011;56035;37.534;-122.308;2023-11-19T08:03:28;49.85;;;4.93;;
68985;SDS011;56035;37.534;-122.308;2023-11-19T08:05:55;45.60;;;5.40;;
68985;SDS011;56035;37.534;-122.308;2023-11-19T08:08:24;56.30;;;6.10;;
68985;SDS011;56035;37.534;-122.308;2023-11-19T08:10:51;47.05;;;5.75;;
68985;SDS011;56035;37.534;-122.308;2023-11-19T08:13:18;53.63;;;5.60;;
68985;SDS011;56035;37.534;-122.308;2023-11-19T08:15:45;45.67;;;5.00;;
68985;SDS011;56035;37.534;-122.308;2023-11-19T08:18:12;48.95;;;4.55;;
68985;SDS011;56035;37.534;-122.308;2023-11-19T08:20:38;42.55;;;4.70;;
68985;SDS011;56035;37.534;-122.308;2023-11-19T08:23:06;43.80;;;5.67;;
68985;SDS011;56035;37.534;-122.308;2023-11-19T08:25:33;48.75;;;4.80;;
68985;SDS011;56035;37.534;-122.308;2023-11-19T08:27:59;44.25;;;4.57;;
68985;SDS011;56035;37.534;-122.308;2023-11-19T08:30:26;56.42;;;5.60;;
68985;SDS011;56035;37.534;-122.308;2023-11-19T08:32:52;43.55;;;5.03;;
68985;SDS011;56035;37.534;-122.308;2023-11-19T08:35:19;36.45;;;4.88;;
68985;SDS011;56035;37.534;-122.308;2023-11-19T08:37:45;49.20;;;5.28;;
68985;SDS011;56035;37.534;-122.308;2023-11-19T08:40:12;41.58;;;5.15;;
68985;SDS011;56035;37.534;-122.308;2023-11-19T08:42:39;41.60;;;4.70;;
68985;SDS011;56035;37.534;-122.308;2023-11-19T08:45:06;53.70;;;5.57;;
68985;SDS011;56035;37.534;-122.308;2023-11-19T08:47:35;45.03;;;6.30;;
68985;SDS011;56035;37.534;-122.308;2023-11-19T08:50:02;49.23;;;5.77;;
68985;SDS011;56035;37.534;-122.308;2023-11-19T08:52:32;42.38;;;4.97;;
68985;SDS011;56035;37.534;-122.308;2023-11-19T08:54:58;39.00;;;5.23;;
68985;SDS011;56035;37.534;-122.308;2023-11-19T08:57:25;39.20;;;4.45;;
68985;SDS011;56035;37.534;-122.308;2023-11-19T08:59:51;59.58;;;6.43;;
68985;SDS011;56035;37.534;-122.308;2023-11-19T09:02:17;41.35;;;5.85;;
68985;SDS011;56035;37.534;-122.308;2023-11-19T09:04:44;56.28;;;6.15;;
68985;SDS011;56035;37.534;-122.308;2023-11-19T09:07:10;45.17;;;4.80;;
68985;SDS011;56035;37.534;-122.308;2023-11-19T09:09:36;45.38;;;4.57;;
68985;SDS011;56035;37.534;-122.308;2023-11-19T09:12:03;49.47;;;4.45;;
68985;SDS011;56035;37.534;-122.308;2023-11-19T09:14:30;43.10;;;5.00;;
68985;SDS011;56035;37.534;-122.308;2023-11-19T09:19:23;49.53;;;4.93;;
68985;SDS011;56035;37.534;-122.308;2023-11-19T09:21:51;48.07;;;4.67;;
68985;SDS011;56035;37.534;-122.308;2023-11-19T09:24:18;41.90;;;4.97;;
68985;SDS011;56035;37.534;-122.308;2023-11-19T09:26:45;42.53;;;5.82;;
68985;SDS011;56035;37.534;-122.308;2023-11-19T09:29:11;37.70;;;4.22;;
68985;SDS011;56035;37.534;-122.308;2023-11-19T09:31:39;44.20;;;5.40;;
68985;SDS011;56035;37.534;-122.308;2023-11-19T09:34:06;40.47;;;4.20;;
68985;SDS011;56035;37.534;-122.308;2023-11-19T09:36:33;50.83;;;5.30;;
68985;SDS011;56035;37.534;-122.308;2023-11-19T09:38:59;46.30;;;4.25;;
68985;SDS011;56035;37.534;-122.308;2023-11-19T09:41:27;57.23;;;5.53;;
68985;SDS011;56035;37.534;-122.308;2023-11-19T09:43:53;36.50;;;4.63;;
68985;SDS011;56035;37.534;-122.308;2023-11-19T09:46:20;46.45;;;4.82;;
68985;SDS011;56035;37.534;-122.308;2023-11-19T09:48:49;45.27;;;5.30;;
68985;SDS011;56035;37.534;-122.308;2023-11-19T09:51:20;46.27;;;6.13;;
68985;SDS011;56035;37.534;-122.308;2023-11-19T09:53:47;39.20;;;5.33;;
68985;SDS011;56035;37.534;-122.308;2023-11-19T09:58:42;55.75;;;5.13;;
68985;SDS011;56035;37.534;-122.308;2023-11-19T10:01:08;40.92;;;5.30;;
68985;SDS011;56035;37.534;-122.308;2023-11-19T10:03:37;44.63;;;5.17;;
68985;SDS011;56035;37.534;-122.308;2023-11-19T10:06:08;46.30;;;6.33;;
68985;SDS011;56035;37.534;-122.308;2023-11-19T10:08:39;43.13;;;5.27;;
68985;SDS011;56035;37.534;-122.308;2023-11-19T10:11:06;50.23;;;4.90;;
68985;SDS011;56035;37.534;-122.308;2023-11-19T10:13:36;42.47;;;6.15;;
68985;SDS011;56035;37.534;-122.308;2023-11-19T10:16:12;50.87;;;4.93;;
68985;SDS011;56035;37.534;-122.308;2023-11-19T10:18:48;39.80;;;4.90;;
68985;SDS011;56035;37.534;-122.308;2023-11-19T10:21:18;50.33;;;5.00;;
68985;SDS011;56035;37.534;-122.308;2023-11-19T10:26:18;49.07;;;5.63;;
68985;SDS011;56035;37.534;-122.308;2023-11-19T10:28:46;45.80;;;5.00;;
68985;SDS011;56035;37.534;-122.308;2023-11-19T10:31:13;46.40;;;5.87;;
68985;SDS011;56035;37.534;-122.308;2023-11-19T10:33:40;30.73;;;4.90;;
68985;SDS011;56035;37.534;-122.308;2023-11-19T10:36:07;46.93;;;4.93;;
68985;SDS011;56035;37.534;-122.308;2023-11-19T10:38:35;40.53;;;6.03;;
68985;SDS011;56035;37.534;-122.308;2023-11-19T10:41:01;47.10;;;5.57;;
68985;SDS011;56035;37.534;-122.308;2023-11-19T10:43:27;39.83;;;4.95;;
68985;SDS011;56035;37.534;-122.308;2023-11-19T10:45:54;43.83;;;4.75;;
68985;SDS011;56035;37.534;-122.308;2023-11-19T10:48:20;37.17;;;4.05;;
68985;SDS011;56035;37.534;-122.308;2023-11-19T10:50:49;46.80;;;4.83;;
68985;SDS011;56035;37.534;-122.308;2023-11-19T10:53:20;28.13;;;3.90;;
68985;SDS011;56035;37.534;-122.308;2023-11-19T10:55:47;48.72;;;5.30;;
68985;SDS011;56035;37.534;-122.308;2023-11-19T11:00:47;44.38;;;4.68;;
68985;SDS011;56035;37.534;-122.308;2023-11-19T11:03:17;40.83;;;4.87;;
68985;SDS011;56035;37.534;-122.308;2023-11-19T11:05:48;41.00;;;4.57;;
68985;SDS011;56035;37.534;-122.308;2023-11-19T11:08:18;36.97;;;4.57;;
68985;SDS011;56035;37.534;-122.308;2023-11-19T11:10:55;45.30;;;4.27;;
68985;SDS011;56035;37.534;-122.308;2023-11-19T11:13:23;38.83;;;4.47;;
68985;SDS011;56035;37.534;-122.308;2023-11-19T11:15:50;34.50;;;3.80;;
68985;SDS011;56035;37.534;-122.308;2023-11-19T11:18:17;38.60;;;4.15;;
68985;SDS011;56035;37.534;-122.308;2023-11-19T11:20:47;38.75;;;4.93;;
68985;SDS011;56035;37.534;-122.308;2023-11-19T11:25:56;37.00;;;5.00;;
68985;SDS011;56035;37.534;-122.308;2023-11-19T11:28:33;38.87;;;4.13;;
68985;SDS011;56035;37.534;-122.308;2023-11-19T11:34:05;39.03;;;5.10;;
68985;SDS011;56035;37.534;-122.308;2023-11-19T11:36:38;36.90;;;4.30;;
68985;SDS011;56035;37.534;-122.308;2023-11-19T11:39:21;38.10;;;4.43;;
68985;SDS011;56035;37.534;-122.308;2023-11-19T11:42:06;34.43;;;4.80;;
68985;SDS011;56035;37.534;-122.308;2023-11-19T11:47:25;37.63;;;5.20;;
68985;SDS011;56035;37.534;-122.308;2023-11-19T11:50:05;33.40;;;3.50;;
68985;SDS011;56035;37.534;-122.308;2023-11-19T11:52:41;35.57;;;4.20;;
68985;SDS011;56035;37.534;-122.308;2023-11-19T11:55:23;40.47;;;4.77;;
68985;SDS011;56035;37.534;-122.308;2023-11-19T11:57:54;38.10;;;5.10;;
68985;SDS011;56035;37.534;-122.308;2023-11-19T12:02:56;42.97;;;4.93;;
68985;SDS011;56035;37.534;-122.308;2023-11-19T12:05:23;34.03;;;3.80;;
68985;SDS011;56035;37.534;-122.308;2023-11-19T12:07:56;32.00;;;4.95;;
68985;SDS011;56035;37.534;-122.308;2023-11-19T12:10:29;30.92;;;4.10;;
68985;SDS011;56035;37.534;-122.308;2023-11-19T12:12:59;38.53;;;4.40;;
68985;SDS011;56035;37.534;-122.308;2023-11-19T12:15:26;41.73;;;4.70;;
68985;SDS011;56035;37.534;-122.308;2023-11-19T12:17:53;34.17;;;4.53;;
68985;SDS011;56035;37.534;-122.308;2023-11-19T12:20:21;34.87;;;4.70;;
68985;SDS011;56035;37.534;-122.308;2023-11-19T12:22:51;29.63;;;3.90;;
68985;SDS011;56035;37.534;-122.308;2023-11-19T12:25:19;42.13;;;3.87;;
68985;SDS011;56035;37.534;-122.308;2023-11-19T12:27:47;27.40;;;3.13;;
68985;SDS011;56035;37.534;-122.308;2023-11-19T12:30:24;22.07;;;2.70;;
68985;SDS011;56035;37.534;-122.308;2023-11-19T12:32:51;35.47;;;3.57;;
68985;SDS011;56035;37.534;-122.308;2023-11-19T12:35:21;27.93;;;3.93;;
68985;SDS011;56035;37.534;-122.308;2023-11-19T12:37:48;37.63;;;4.28;;
68985;SDS011;56035;37.534;-122.308;2023-11-19T12:40:19;33.17;;;2.93;;
68985;SDS011;56035;37.534;-122.308;2023-11-19T12:42:49;29.60;;;3.40;;
68985;SDS011;56035;37.534;-122.308;2023-11-19T12:45:17;29.60;;;3.87;;
68985;SDS011;56035;37.534;-122.308;2023-11-19T12:47:45;29.07;;;2.90;;
68985;SDS011;56035;37.534;-122.308;2023-11-19T12:50:16;28.47;;;2.87;;
68985;SDS011;56035;37.534;-122.308;2023-11-19T12:52:54;34.00;;;4.00;;
68985;SDS011;56035;37.534;-122.308;2023-11-19T12:55:26;32.97;;;3.50;;
68985;SDS011;56035;37.534;-122.308;2023-11-19T12:57:53;25.40;;;3.43;;
68985;SDS011;56035;37.534;-122.308;2023-11-19T13:00:24;29.13;;;2.90;;
68985;SDS011;56035;37.534;-122.308;2023-11-19T13:02:57;21.70;;;3.13;;
68985;SDS011;56035;37.534;-122.308;2023-11-19T13:05:33;30.50;;;3.70;;
68985;SDS011;56035;37.534;-122.308;2023-11-19T13:08:00;29.07;;;3.23;;
68985;SDS011;56035;37.534;-122.308;2023-11-19T13:10:27;33.60;;;4.03;;
68985;SDS011;56035;37.534;-122.308;2023-11-19T13:13:06;23.25;;;3.33;;
68985;SDS011;56035;37.534;-122.308;2023-11-19T13:15:34;26.03;;;3.17;;
68985;SDS011;56035;37.534;-122.308;2023-11-19T13:18:01;23.37;;;3.17;;
68985;SDS011;56035;37.534;-122.308;2023-11-19T13:20:28;27.67;;;3.80;;
68985;SDS011;56035;37.534;-122.308;2023-11-19T13:25:21;20.83;;;2.33;;
68985;SDS011;56035;37.534;-122.308;2023-11-19T13:27:48;25.52;;;3.03;;
68985;SDS011;56035;37.534;-122.308;2023-11-19T13:30:14;29.77;;;2.90;;
68985;SDS011;56035;37.534;-122.308;2023-11-19T13:32:41;26.80;;;4.07;;
68985;SDS011;56035;37.534;-122.308;2023-11-19T13:35:09;31.13;;;3.20;;
68985;SDS011;56035;37.534;-122.308;2023-11-19T13:37:36;30.58;;;3.92;;
68985;SDS011;56035;37.534;-122.308;2023-11-19T13:40:02;21.48;;;3.13;;
68985;SDS011;56035;37.534;-122.308;2023-11-19T13:42:29;28.42;;;3.33;;
68985;SDS011;56035;37.534;-122.308;2023-11-19T13:44:55;30.77;;;3.45;;
68985;SDS011;56035;37.534;-122.308;2023-11-19T13:47:22;33.65;;;3.55;;
68985;SDS011;56035;37.534;-122.308;2023-11-19T13:49:49;29.60;;;2.95;;
68985;SDS011;56035;37.534;-122.308;2023-11-19T13:52:15;28.13;;;3.83;;
68985;SDS011;56035;37.534;-122.308;2023-11-19T13:54:42;19.27;;;3.45;;
68985;SDS011;56035;37.534;-122.308;2023-11-19T13:57:08;28.90;;;3.63;;
68985;SDS011;56035;37.534;-122.308;2023-11-19T13:59:39;28.40;;;3.38;;
68985;SDS011;56035;37.534;-122.308;2023-11-19T14:02:06;39.67;;;4.30;;
68985;SDS011;56035;37.534;-122.308;2023-11-19T14:04:33;25.48;;;3.25;;
68985;SDS011;56035;37.534;-122.308;2023-11-19T14:06:59;27.35;;;3.42;;
68985;SDS011;56035;37.534;-122.308;2023-11-19T14:09:26;31.75;;;3.70;;
68985;SDS011;56035;37.534;-122.308;2023-11-19T14:11:52;24.75;;;3.75;;
68985;SDS011;56035;37.534;-122.308;2023-11-19T14:14:18;33.78;;;3.65;;
68985;SDS011;56035;37.534;-122.308;2023-11-19T14:16:45;22.52;;;2.55;;
68985;SDS011;56035;37.534;-122.308;2023-11-19T14:19:11;26.63;;;3.85;;
68985;SDS011;56035;37.534;-122.308;2023-11-19T14:21:39;28.80;;;3.00;;
68985;SDS011;56035;37.534;-122.308;2023-11-19T14:24:05;27.90;;;3.25;;
68985;SDS011;56035;37.534;-122.308;2023-11-19T14:26:32;28.30;;;3.15;;
68985;SDS011;56035;37.534;-122.308;2023-11-19T14:28:58;26.15;;;3.50;;
68985;SDS011;56035;37.534;-122.308;2023-11-19T14:31:27;34.85;;;3.88;;
68985;SDS011;56035;37.534;-122.308;2023-11-19T14:33:54;21.20;;;2.53;;
68985;SDS011;56035;37.534;-122.308;2023-11-19T14:36:21;19.35;;;3.40;;
68985;SDS011;56035;37.534;-122.308;2023-11-19T14:38:47;19.00;;;2.78;;
68985;SDS011;56035;37.534;-122.308;2023-11-19T14:41:16;20.77;;;2.47;;
68985;SDS011;56035;37.534;-122.308;2023-11-19T14:43:43;25.03;;;3.17;;
68985;SDS011;56035;37.534;-122.308;2023-11-19T14:46:09;27.00;;;3.13;;
68985;SDS011;56035;37.534;-122.308;2023-11-19T14:48:35;24.73;;;3.15;;
68985;SDS011;56035;37.534;-122.308;2023-11-19T14:51:02;18.45;;;2.67;;